createdAt,value
2022-08-02T00:00:59.425Z,23.80
2022-08-02T00:06:03.659Z,23.90
2022-08-02T00:11:06.604Z,23.80
2022-08-02T00:16:09.656Z,23.70
2022-08-02T00:21:13.931Z,23.80
2022-08-02T00:26:17.513Z,23.50
2022-08-02T00:31:20.425Z,22.90
2022-08-02T00:36:24.667Z,23.00
2022-08-02T00:41:27.607Z,23.20
2022-08-02T00:46:30.489Z,23.00
2022-08-02T00:51:34.823Z,22.30
2022-08-02T00:56:37.732Z,22.90
2022-08-02T01:01:55.852Z,23.10
2022-08-02T01:07:11.892Z,23.30
2022-08-02T01:12:16.401Z,23.40
2022-08-02T01:17:26.856Z,23.20
2022-08-02T01:23:00.998Z,23.00
2022-08-02T01:28:30.886Z,23.00
2022-08-02T01:33:40.819Z,22.70
2022-08-02T01:38:48.032Z,22.20
2022-08-02T01:43:56.547Z,21.40
2022-08-02T01:49:03.898Z,21.50
2022-08-02T01:54:13.207Z,21.60
2022-08-02T01:59:22.103Z,22.00
2022-08-02T02:04:27.597Z,22.40
2022-08-02T02:09:35.752Z,22.40
2022-08-02T02:14:55.668Z,22.30
2022-08-02T02:20:01.340Z,22.40
2022-08-02T02:25:06.479Z,22.60
2022-08-02T02:30:12.463Z,22.50
2022-08-02T02:35:18.451Z,22.30
2022-08-02T02:40:23.496Z,22.20
2022-08-02T02:45:29.299Z,22.20
2022-08-02T02:50:33.237Z,22.30
2022-08-02T02:55:36.579Z,22.30
2022-08-02T03:00:59.420Z,22.20
2022-08-02T03:06:02.450Z,22.00
2022-08-02T03:11:18.970Z,22.10
2022-08-02T03:16:23.363Z,21.70
2022-08-02T03:21:26.256Z,21.50
2022-08-02T03:26:29.700Z,21.30
2022-08-02T03:31:33.407Z,21.30
2022-08-02T03:36:39.905Z,21.30
2022-08-02T03:41:44.189Z,21.10
2022-08-02T03:46:47.358Z,21.10
2022-08-02T03:51:52.041Z,20.50
2022-08-02T03:56:55.091Z,21.00
2022-08-02T04:01:58.162Z,21.10
2022-08-02T04:07:07.411Z,21.10
2022-08-02T04:12:11.051Z,21.00
2022-08-02T04:17:16.227Z,21.00
2022-08-02T04:22:26.468Z,21.10
2022-08-02T04:27:51.078Z,21.00
2022-08-02T04:32:53.945Z,20.70
2022-08-02T04:38:09.080Z,20.90
2022-08-02T04:43:12.918Z,20.90
2022-08-02T04:48:15.880Z,21.00
2022-08-02T04:53:20.279Z,20.90
2022-08-02T04:58:39.849Z,21.10
2022-08-02T05:03:43.482Z,21.30
2022-08-02T05:08:53.248Z,21.40
2022-08-02T05:13:57.487Z,21.40
2022-08-02T05:19:02.032Z,21.30
2022-08-02T05:24:08.051Z,21.30
2022-08-02T05:29:11.176Z,21.20
2022-08-02T05:34:14.117Z,21.50
2022-08-02T05:39:18.702Z,21.60
2022-08-02T05:44:22.187Z,21.90
2022-08-02T05:49:25.153Z,22.20
2022-08-02T05:54:41.981Z,22.40
2022-08-02T05:59:53.740Z,22.60
2022-08-02T06:05:05.756Z,22.60
2022-08-02T06:10:13.250Z,22.60
2022-08-02T06:15:18.189Z,22.80
2022-08-02T06:20:21.876Z,22.90
2022-08-02T06:25:51.081Z,23.00
2022-08-02T06:30:50.295Z,23.10
2022-08-02T06:36:02.607Z,23.10
2022-08-02T06:41:09.540Z,23.10
2022-08-02T06:47:08.388Z,23.30
2022-08-02T06:51:38.214Z,23.30
2022-08-02T06:56:42.475Z,23.40
2022-08-02T07:01:45.434Z,23.50
2022-08-02T07:06:48.461Z,23.60
2022-08-02T07:11:52.803Z,23.70
2022-08-02T07:16:55.764Z,23.60
2022-08-02T07:22:00.681Z,23.70
2022-08-02T07:27:11.731Z,23.80
2022-08-02T07:32:16.072Z,24.20
2022-08-02T07:37:34.947Z,24.40
2022-08-02T07:42:44.110Z,24.40
2022-08-02T07:47:47.593Z,24.30
2022-08-02T07:52:57.633Z,24.70
2022-08-02T07:58:02.425Z,24.80
2022-08-02T08:03:06.287Z,24.90
2022-08-02T08:08:13.789Z,24.90
2022-08-02T08:13:21.542Z,24.70
2022-08-02T08:18:24.591Z,24.70
2022-08-02T08:23:27.536Z,24.90
2022-08-02T08:28:32.364Z,24.90
2022-08-02T08:33:35.414Z,25.10
2022-08-02T08:38:38.325Z,25.30
2022-08-02T08:43:42.698Z,25.50
2022-08-02T08:48:50.244Z,25.50
2022-08-02T08:53:55.550Z,25.60
2022-08-02T08:59:02.843Z,25.90
2022-08-02T09:04:05.959Z,25.90
2022-08-02T09:09:08.907Z,25.90
2022-08-02T09:14:26.476Z,26.30
2022-08-02T09:19:29.583Z,26.50
2022-08-02T09:24:42.890Z,26.90
2022-08-02T09:35:15.475Z,26.40
2022-08-02T09:40:37.268Z,26.30
2022-08-02T09:45:48.964Z,26.50
2022-08-02T09:51:03.764Z,26.60
2022-08-02T09:56:11.587Z,26.90
2022-08-02T10:01:37.135Z,27.30
2022-08-02T10:07:06.935Z,27.10
2022-08-02T10:12:13.143Z,26.90
2022-08-02T10:17:24.209Z,27.10
2022-08-02T10:22:29.841Z,27.40
2022-08-02T10:27:49.336Z,27.60
2022-08-02T10:32:58.794Z,27.50
2022-08-02T10:38:07.901Z,27.60
2022-08-02T10:43:14.919Z,28.20
2022-08-02T10:48:19.203Z,28.50
2022-08-02T10:53:24.805Z,28.80
2022-08-02T10:58:30.461Z,28.60
2022-08-02T11:03:46.121Z,28.40
2022-08-02T11:08:49.091Z,28.30
2022-08-02T11:14:01.377Z,28.20
2022-08-02T11:19:07.107Z,28.50
2022-08-02T11:24:31.219Z,28.50
2022-08-02T11:29:39.851Z,29.00
2022-08-02T11:34:46.632Z,28.80
2022-08-02T11:39:52.623Z,28.80
2022-08-02T11:44:56.974Z,28.80
2022-08-02T11:50:07.858Z,28.80
2022-08-02T11:55:13.902Z,29.00
2022-08-02T12:00:18.784Z,29.30
2022-08-02T12:05:44.773Z,29.50
2022-08-02T12:10:49.127Z,29.60
2022-08-02T12:15:52.163Z,29.60
2022-08-02T12:20:56.522Z,29.30
2022-08-02T12:26:04.678Z,29.60
2022-08-02T12:31:10.513Z,29.50
2022-08-02T12:36:18.366Z,29.60
2022-08-02T12:41:31.185Z,29.60
2022-08-02T12:46:35.719Z,29.80
2022-08-02T12:51:58.999Z,30.00
2022-08-02T12:57:12.543Z,29.80
2022-08-02T13:02:16.667Z,30.00
2022-08-02T13:07:21.531Z,29.90
2022-08-02T13:12:24.406Z,30.20
2022-08-02T13:17:27.569Z,30.00
2022-08-02T13:22:32.108Z,30.00
2022-08-02T13:27:37.895Z,30.20
2022-08-02T13:32:40.745Z,30.30
2022-08-02T13:37:45.451Z,30.30
2022-08-02T13:42:50.426Z,30.30
2022-08-02T13:48:04.150Z,30.30
2022-08-02T13:53:09.769Z,30.30
2022-08-02T13:58:14.687Z,30.70
2022-08-02T14:03:17.566Z,30.80
2022-08-02T14:08:23.054Z,30.60
2022-08-02T14:13:25.960Z,30.40
2022-08-02T14:18:28.857Z,30.60
2022-08-02T14:23:50.000Z,30.80
2022-08-02T14:28:53.836Z,30.90
2022-08-02T14:33:56.756Z,30.80
2022-08-02T14:39:01.865Z,30.70
2022-08-02T14:44:05.317Z,30.90
2022-08-02T14:49:09.581Z,31.10
2022-08-02T14:54:14.741Z,31.30
2022-08-02T14:59:17.703Z,31.30
2022-08-02T15:04:20.704Z,31.20
2022-08-02T15:09:24.973Z,31.40
2022-08-02T15:14:28.093Z,31.10
2022-08-02T15:19:57.830Z,31.10
2022-08-02T15:25:02.209Z,31.30
2022-08-02T15:30:06.155Z,31.40
2022-08-02T15:35:09.572Z,31.50
2022-08-02T15:40:14.340Z,31.60
2022-08-02T15:45:17.347Z,31.80
2022-08-02T15:50:20.936Z,31.90
2022-08-02T15:55:25.157Z,31.90
2022-08-02T16:00:29.863Z,31.90
2022-08-02T16:05:33.878Z,31.90
2022-08-02T16:10:38.131Z,31.90
2022-08-02T16:15:41.251Z,31.70
2022-08-02T16:20:44.186Z,31.90
2022-08-02T16:25:51.128Z,32.00
2022-08-02T16:31:09.915Z,32.20
2022-08-02T16:36:21.642Z,32.20
2022-08-02T16:41:51.749Z,32.20
2022-08-02T16:46:55.702Z,32.30
2022-08-02T16:51:58.643Z,32.10
2022-08-02T16:57:05.328Z,31.90
2022-08-02T17:02:11.289Z,32.20
2022-08-02T17:08:08.327Z,32.20
2022-08-02T17:12:40.464Z,32.20
2022-08-02T17:17:43.420Z,32.10
2022-08-02T17:22:47.269Z,32.00
2022-08-02T17:27:56.038Z,32.00
2022-08-02T17:32:59.594Z,32.10
2022-08-02T17:38:02.864Z,32.00
2022-08-02T17:43:14.510Z,32.00
2022-08-02T17:48:49.139Z,32.00
2022-08-02T17:53:52.085Z,31.90
2022-08-02T17:59:12.257Z,31.90
2022-08-02T18:04:27.609Z,31.60
2022-08-02T18:09:32.187Z,31.60
2022-08-02T18:14:36.463Z,31.40
2022-08-02T18:19:53.338Z,31.30
2022-08-02T18:25:00.478Z,30.80
2022-08-02T18:30:27.998Z,30.80
2022-08-02T18:35:31.503Z,31.10
2022-08-02T18:40:37.702Z,31.20
2022-08-02T18:46:07.245Z,31.00
2022-08-02T18:51:05.165Z,31.10
2022-08-02T18:56:09.718Z,30.90
2022-08-02T19:01:34.002Z,30.70
2022-08-02T19:06:38.546Z,30.60
2022-08-02T19:11:48.207Z,30.30
2022-08-02T19:16:55.746Z,30.30
2022-08-02T19:22:27.097Z,29.90
2022-08-02T19:27:32.849Z,30.10
2022-08-02T19:38:08.965Z,29.50
2022-08-02T19:55:59.908Z,29.20
2022-08-02T20:00:44.755Z,29.30
2022-08-02T20:05:50.193Z,29.10
2022-08-02T20:10:53.100Z,29.10
2022-08-02T20:15:57.296Z,29.10
2022-08-02T20:21:01.830Z,29.10
2022-08-02T20:26:06.252Z,29.10
2022-08-02T20:31:14.075Z,29.00
2022-08-02T20:36:20.781Z,28.90
2022-08-02T20:41:23.849Z,28.90
2022-08-02T20:46:40.239Z,29.00
2022-08-02T20:51:45.120Z,29.00
2022-08-02T20:56:48.048Z,28.90
2022-08-02T21:01:57.402Z,28.90
2022-08-02T21:07:01.958Z,28.80
2022-08-02T21:12:12.535Z,28.50
2022-08-02T21:17:22.324Z,28.60
2022-08-02T21:22:32.046Z,28.30
2022-08-02T21:32:57.830Z,27.50
2022-08-02T21:38:02.037Z,27.80
2022-08-02T21:43:05.490Z,27.70
2022-08-02T21:48:11.893Z,27.30
2022-08-02T21:53:18.944Z,27.60
2022-08-02T21:58:40.065Z,27.40
2022-08-02T22:03:43.559Z,27.60
2022-08-02T22:09:00.000Z,27.40
2022-08-02T22:14:03.143Z,26.80
2022-08-02T22:19:06.673Z,26.80
2022-08-02T22:24:12.855Z,27.00
2022-08-02T22:29:22.268Z,27.10
2022-08-02T22:34:37.212Z,27.30
2022-08-02T22:40:05.916Z,27.00
2022-08-02T22:45:12.543Z,27.00
2022-08-02T22:50:15.399Z,27.00
2022-08-02T22:55:21.455Z,26.30
2022-08-02T22:59:00.261Z,30.00
2022-08-02T22:59:12.689Z,28.50
2022-08-02T23:00:26.627Z,26.60
2022-08-02T23:05:29.742Z,26.80
2022-08-02T23:10:34.118Z,26.70
2022-08-02T23:15:53.449Z,26.70
2022-08-02T23:20:57.350Z,26.70
2022-08-02T23:26:01.574Z,26.70
2022-08-02T23:31:29.062Z,26.50
2022-08-02T23:36:40.851Z,26.50
2022-08-02T23:41:45.093Z,26.60
2022-08-02T23:47:00.280Z,26.30
2022-08-02T23:52:03.150Z,25.50
2022-08-02T23:57:20.362Z,25.40
